EDT,Max TemperatureF,Mean TemperatureF,Min TemperatureF,Max Dew PointF,MeanDew PointF,Min DewpointF,Max Humidity, Mean Humidity, Min Humidity, Max Sea Level PressureIn, Mean Sea Level PressureIn, Min Sea Level PressureIn, Max VisibilityMiles, Mean VisibilityMiles, Min VisibilityMiles, Max Wind SpeedMPH, Mean Wind SpeedMPH, Max Gust SpeedMPH,PrecipitationIn, CloudCover, Events, WindDirDegrees
2013-8-1,81,73,64,68,63,59,100,75,49,30.02,29.97,29.93,10,7,2,18,8,22,0.00,5,,288
2013-8-2,82,71,59,66,60,55,87,67,47,30.02,29.98,29.95,10,10,9,21,8,25,T,6,Rain,232
2013-8-3,81,73,64,67,65,59,93,71,49,30.05,30.00,29.96,10,8,2,15,7,21,0.35,6,Rain,289
2013-8-4,77,67,57,59,55,54,86,65,43,30.16,30.12,30.06,10,10,10,17,7,21,0.00,3,,351
2013-8-5,77,69,60,62,57,55,90,69,47,30.14,30.08,29.99,10,10,6,10,4,13,0.05,6,Rain,168
2013-8-6,81,72,63,66,62,57,93,74,54,30.00,29.97,29.94,10,10,10,15,8,20,0.00,4,,162
2013-8-7,84,78,72,72,70,66,93,79,65,29.98,29.94,29.88,10,7,0,14,6,16,0.00,7,,204
2013-8-8,83,77,70,75,72,68,100,83,65,29.99,29.95,29.91,10,5,0,20,4,29,0.76,7,Fog-Rain-Thunderstorm,226
2013-8-9,81,74,67,72,68,66,100,81,62,30.05,29.98,29.92,10,5,0,10,4,13,0.16,8,Fog-Rain,15
2013-8-10,84,76,68,68,66,64,97,76,55,30.13,30.08,30.05,10,8,2,10,2,14,0.00,5,,238
2013-8-11,84,74,64,69,66,63,100,78,55,30.12,30.09,30.05,10,7,0,13,4,16,0.00,3,Fog,349
2013-8-12,84,75,65,69,65,62,87,71,55,30.09,30.01,29.88,10,10,7,13,5,17,0.00,4,,212
2013-8-13,77,67,56,68,60,47,93,71,49,30.08,29.94,29.86,10,9,4,21,11,33,0.00,4,,333
2013-8-14,71,60,49,50,48,45,93,68,42,30.19,30.16,30.09,10,10,10,14,6,17,0.00,2,,354
2013-8-15,74,61,48,54,50,46,93,69,44,30.20,30.17,30.12,10,10,10,8,2,13,0.00,3,,33
2013-8-16,75,65,54,55,53,51,86,66,46,30.19,30.16,30.13,10,10,10,14,5,21,0.00,6,,46
2013-8-17,81,69,57,58,55,53,86,64,42,30.22,30.18,30.15,10,10,10,14,6,20,0.00,5,,68
2013-8-18,82,70,57,66,59,56,93,69,45,30.21,30.16,30.11,10,9,4,13,4,16,0.00,3,,59
2013-8-19,84,72,59,64,60,55,100,70,40,30.18,30.14,30.09,10,6,0,10,3,13,0.00,2,Fog,11
2013-8-20,85,74,63,66,61,59,90,67,44,30.19,30.14,30.11,10,9,5,12,4,14,0.00,3,,147
2013-8-21,86,76,66,69,65,62,87,73,59,30.18,30.13,30.07,10,8,5,14,6,26,0.00,5,,148
2013-8-22,85,77,68,71,68,66,97,79,61,30.12,30.09,30.03,10,8,3,17,7,23,0.06,6,Rain,257
2013-8-23,85,75,65,68,65,57,100,72,43,30.18,30.10,30.06,10,6,1,14,7,17,0.00,6,,360
2013-8-24,84,70,56,62,58,53,93,67,40,30.29,30.25,30.19,10,10,10,13,5,16,0.00,2,,85
2013-8-25,86,75,63,62,58,55,87,61,35,30.35,30.29,30.24,10,10,7,10,4,13,0.00,1,,209
2013-8-26,89,77,65,70,65,59,81,66,50,30.26,30.17,30.07,10,8,5,17,9,23,0.00,3,,241
2013-8-27,89,80,70,74,71,67,97,80,63,30.09,30.02,29.96,10,7,2,14,8,17,0.00,4,,240
2013-8-28,91,82,73,74,71,69,93,74,55,29.99,29.92,29.90,10,9,5,18,12,24,T,5,Rain,291
2013-8-29,85,77,68,71,69,67,100,79,58,30.10,30.03,29.98,10,5,0,10,4,13,0.00,5,Fog,32
2013-8-30,90,78,65,70,66,64,100,72,44,30.02,29.96,29.83,10,7,3,13,5,21,0.00,1,,228
2013-8-31,91,81,70,69,67,65,93,70,47,29.86,29.83,29.80,10,9,7,18,7,22,T,6,Rain-Thunderstorm,237